createdAt,value
2019-04-06T00:00:03.156Z,6.43
2019-04-06T00:02:33.251Z,6.63
2019-04-06T00:05:01.658Z,7.77
2019-04-06T00:07:30.089Z,6.00
2019-04-06T00:09:58.623Z,6.40
2019-04-06T00:12:27.074Z,5.33
2019-04-06T00:14:55.486Z,6.43
2019-04-06T00:17:23.961Z,5.30
2019-04-06T00:19:52.432Z,5.97
2019-04-06T00:22:20.961Z,5.33
2019-04-06T00:24:49.400Z,8.20
2019-04-06T00:27:17.811Z,5.10
2019-04-06T00:29:46.338Z,5.13
2019-04-06T00:32:21.920Z,7.10
2019-04-06T00:34:50.390Z,5.43
2019-04-06T00:37:18.826Z,7.13
2019-04-06T00:39:47.247Z,5.80
2019-04-06T00:42:15.672Z,6.23
2019-04-06T00:44:44.154Z,7.83
2019-04-06T00:47:12.594Z,5.13
2019-04-06T00:49:41.001Z,4.97
2019-04-06T00:52:09.451Z,4.93
2019-04-06T00:54:37.860Z,5.50
2019-04-06T00:57:06.270Z,5.13
2019-04-06T00:59:34.678Z,6.90
2019-04-06T01:02:03.263Z,5.97
2019-04-06T01:04:31.683Z,5.43
2019-04-06T01:07:00.135Z,5.20
2019-04-06T01:09:28.538Z,6.17
2019-04-06T01:11:57.006Z,5.33
2019-04-06T01:14:25.444Z,5.23
2019-04-06T01:16:53.962Z,6.40
2019-04-06T01:19:22.342Z,6.60
2019-04-06T01:21:50.794Z,5.70
2019-04-06T01:24:19.198Z,5.33
2019-04-06T01:26:47.668Z,6.00
2019-04-06T01:29:16.080Z,4.93
2019-04-06T01:31:44.543Z,6.67
2019-04-06T01:34:12.976Z,8.57
2019-04-06T01:36:41.534Z,5.57
2019-04-06T01:39:09.942Z,8.17
2019-04-06T01:41:38.354Z,13.03
2019-04-06T01:44:06.761Z,8.80
2019-04-06T01:46:35.169Z,7.00
2019-04-06T01:49:03.575Z,9.57
2019-04-06T01:51:31.985Z,6.67
2019-04-06T01:54:00.400Z,11.93
2019-04-06T01:56:28.879Z,7.17
2019-04-06T01:58:57.362Z,9.73
2019-04-06T02:01:27.431Z,6.47
2019-04-06T02:03:55.899Z,7.30
2019-04-06T02:06:24.303Z,4.93
2019-04-06T02:08:52.777Z,6.43
2019-04-06T02:11:21.253Z,6.13
2019-04-06T02:13:49.665Z,7.50
2019-04-06T02:16:18.092Z,5.10
2019-04-06T02:18:46.602Z,4.70
2019-04-06T02:21:15.009Z,6.10
2019-04-06T02:23:43.421Z,5.00
2019-04-06T02:26:11.819Z,5.43
2019-04-06T02:28:40.368Z,4.60
2019-04-06T02:31:27.098Z,4.23
2019-04-06T02:33:59.852Z,5.97
2019-04-06T02:36:29.942Z,4.33
2019-04-06T02:38:59.998Z,4.87
2019-04-06T02:41:48.393Z,5.90
2019-04-06T02:44:16.834Z,4.67
2019-04-06T02:46:45.310Z,4.50
2019-04-06T02:49:14.046Z,4.07
2019-04-06T02:51:42.471Z,5.30
2019-04-06T02:54:10.904Z,4.00
2019-04-06T02:56:46.253Z,5.73
2019-04-06T02:59:09.505Z,6.43
2019-04-06T03:01:37.905Z,4.30
2019-04-06T03:04:06.343Z,5.57
2019-04-06T03:06:34.780Z,5.30
2019-04-06T03:09:04.896Z,5.47
2019-04-06T03:11:33.306Z,3.77
2019-04-06T03:14:01.722Z,3.90
2019-04-06T03:16:30.742Z,4.93
2019-04-06T03:18:59.440Z,4.30
2019-04-06T03:21:27.845Z,5.47
2019-04-06T03:23:56.261Z,4.83
2019-04-06T03:26:24.699Z,6.77
2019-04-06T03:28:53.110Z,7.23
2019-04-06T03:31:25.539Z,6.97
2019-04-06T03:33:51.711Z,4.13
2019-04-06T03:36:20.102Z,10.70
2019-04-06T03:38:48.510Z,5.93
2019-04-06T03:41:16.982Z,5.80
2019-04-06T03:43:45.399Z,7.27
2019-04-06T03:46:13.804Z,8.10
2019-04-06T03:48:42.240Z,4.70
2019-04-06T03:51:10.808Z,8.53
2019-04-06T03:53:39.269Z,7.57
2019-04-06T03:56:07.683Z,7.90
2019-04-06T03:58:36.119Z,6.93
2019-04-06T04:01:04.572Z,5.80
2019-04-06T04:03:32.950Z,6.00
2019-04-06T04:06:01.507Z,5.60
2019-04-06T04:08:29.944Z,4.70
2019-04-06T04:10:58.406Z,7.70
2019-04-06T04:13:26.871Z,3.47
2019-04-06T04:15:57.190Z,5.53
2019-04-06T04:18:25.656Z,7.30
2019-04-06T04:20:54.277Z,4.50
2019-04-06T04:23:22.701Z,5.47
2019-04-06T04:25:51.122Z,4.43
2019-04-06T04:28:19.689Z,4.50
2019-04-06T04:30:48.119Z,6.23
2019-04-06T04:33:16.546Z,5.47
2019-04-06T04:35:44.925Z,3.53
2019-04-06T04:38:13.341Z,3.57
2019-04-06T04:40:41.747Z,3.83
2019-04-06T04:43:10.193Z,3.50
2019-04-06T04:45:38.702Z,3.87
2019-04-06T04:48:07.105Z,3.27
2019-04-06T04:50:35.695Z,4.50
2019-04-06T04:53:04.158Z,3.97
2019-04-06T04:55:32.546Z,3.90
2019-04-06T04:58:00.970Z,5.07
2019-04-06T05:00:29.349Z,4.70
2019-04-06T05:02:57.816Z,3.47
2019-04-06T05:05:26.423Z,3.50
2019-04-06T05:07:54.937Z,3.90
2019-04-06T05:10:23.600Z,3.60
2019-04-06T05:12:52.192Z,5.43
2019-04-06T05:15:30.021Z,3.63
2019-04-06T05:17:58.458Z,3.30
2019-04-06T05:20:27.048Z,2.70
2019-04-06T05:22:55.453Z,4.73
2019-04-06T05:25:24.012Z,6.07
2019-04-06T05:27:53.153Z,4.27
2019-04-06T05:30:21.909Z,3.73
2019-04-06T05:32:50.385Z,4.87
2019-04-06T05:35:18.861Z,2.97
2019-04-06T05:37:47.270Z,5.23
2019-04-06T05:40:15.798Z,4.33
2019-04-06T05:42:44.237Z,3.00
2019-04-06T05:45:12.745Z,5.03
2019-04-06T05:47:42.550Z,7.80
2019-04-06T05:50:11.000Z,5.30
2019-04-06T05:52:39.408Z,5.53
2019-04-06T05:55:07.850Z,3.80
2019-04-06T05:57:37.556Z,10.83
2019-04-06T06:00:10.482Z,8.60
2019-04-06T06:02:41.333Z,15.83
2019-04-06T06:05:08.577Z,7.67
2019-04-06T06:07:38.437Z,7.70
2019-04-06T06:10:07.838Z,8.83
2019-04-06T06:12:36.260Z,11.70
2019-04-06T06:15:06.747Z,9.20
2019-04-06T06:17:35.320Z,8.63
2019-04-06T06:20:05.219Z,11.90
2019-04-06T06:22:33.626Z,9.63
2019-04-06T06:25:02.076Z,9.10
2019-04-06T06:27:30.469Z,11.07
2019-04-06T06:29:58.940Z,9.27
2019-04-06T06:32:27.351Z,7.80
2019-04-06T06:34:56.044Z,7.43
2019-04-06T06:37:24.486Z,9.23
2019-04-06T06:39:52.925Z,7.10
2019-04-06T06:42:21.327Z,9.97
2019-04-06T06:44:49.924Z,7.10
2019-04-06T06:47:18.329Z,9.33
2019-04-06T06:49:46.807Z,7.57
2019-04-06T06:52:15.216Z,9.40
2019-04-06T06:54:43.627Z,9.90
2019-04-06T06:57:12.100Z,8.57
2019-04-06T06:59:40.512Z,7.50
2019-04-06T07:02:08.923Z,7.00
2019-04-06T07:04:37.328Z,8.63
2019-04-06T07:07:05.742Z,7.47
2019-04-06T07:09:34.187Z,8.70
2019-04-06T07:12:02.551Z,6.40
2019-04-06T07:14:30.955Z,8.13
2019-04-06T07:16:59.391Z,8.03
2019-04-06T07:19:27.799Z,9.37
2019-04-06T07:21:57.870Z,7.30
2019-04-06T07:24:26.350Z,8.80
2019-04-06T07:26:54.842Z,8.57
2019-04-06T07:29:23.430Z,9.87
2019-04-06T07:31:51.843Z,9.40
2019-04-06T07:34:20.248Z,7.40
2019-04-06T07:36:48.940Z,7.87
2019-04-06T07:39:17.358Z,8.23
2019-04-06T07:41:45.859Z,10.23
2019-04-06T07:44:14.453Z,14.67
2019-04-06T07:46:42.963Z,13.07
2019-04-06T07:49:11.370Z,12.10
2019-04-06T07:51:39.771Z,12.23
2019-04-06T07:54:08.348Z,10.07
2019-04-06T07:56:36.818Z,6.77
2019-04-06T07:59:05.235Z,9.00
2019-04-06T08:01:33.782Z,6.90
2019-04-06T08:04:02.402Z,8.53
2019-04-06T08:06:30.910Z,7.47
2019-04-06T08:08:59.317Z,8.00
2019-04-06T08:11:27.909Z,13.17
2019-04-06T08:13:56.315Z,10.50
2019-04-06T08:16:24.870Z,11.03
2019-04-06T08:18:53.276Z,8.50
2019-04-06T08:21:21.727Z,10.33
2019-04-06T08:23:50.134Z,8.83
2019-04-06T08:26:18.582Z,7.20
2019-04-06T08:28:46.999Z,7.03
2019-04-06T08:31:15.464Z,8.87
2019-04-06T08:33:44.042Z,9.33
2019-04-06T08:36:12.460Z,9.10
2019-04-06T08:38:40.957Z,7.60
2019-04-06T08:41:09.401Z,8.33
2019-04-06T08:43:37.938Z,7.43
2019-04-06T08:46:06.444Z,7.37
2019-04-06T08:48:34.886Z,6.97
2019-04-06T08:51:03.327Z,10.17
2019-04-06T08:53:31.746Z,9.17
2019-04-06T08:56:00.187Z,7.73
2019-04-06T08:58:28.603Z,7.73
2019-04-06T09:00:57.116Z,8.33
2019-04-06T09:03:25.586Z,9.47
2019-04-06T09:05:54.031Z,10.43
2019-04-06T09:08:22.500Z,8.10
2019-04-06T09:10:52.274Z,7.77
2019-04-06T09:13:21.018Z,11.03
2019-04-06T09:15:49.549Z,7.23
2019-04-06T09:18:17.930Z,8.10
2019-04-06T09:20:47.077Z,9.13
2019-04-06T09:23:15.552Z,7.27
2019-04-06T09:25:43.956Z,9.63
2019-04-06T09:28:12.363Z,9.57
2019-04-06T09:30:40.930Z,6.87
2019-04-06T09:33:09.353Z,8.93
2019-04-06T09:35:37.916Z,7.80
2019-04-06T09:38:07.983Z,8.80
2019-04-06T09:40:36.391Z,8.77
2019-04-06T09:43:04.866Z,8.73
2019-04-06T09:45:34.928Z,8.17
2019-04-06T09:48:07.965Z,7.97
2019-04-06T09:50:54.226Z,6.23
2019-04-06T09:53:24.272Z,7.97
2019-04-06T09:55:57.365Z,6.40
2019-04-06T09:58:33.546Z,7.37
2019-04-06T10:01:03.691Z,6.77
2019-04-06T10:03:39.179Z,7.23
2019-04-06T10:06:18.026Z,6.30
2019-04-06T10:08:56.858Z,7.20
2019-04-06T10:11:32.957Z,8.50
2019-04-06T10:14:03.037Z,6.07
2019-04-06T10:16:39.311Z,6.30
2019-04-06T10:19:12.191Z,8.50
2019-04-06T10:22:00.764Z,6.33
2019-04-06T10:24:47.034Z,5.80
2019-04-06T10:27:19.706Z,6.40
2019-04-06T10:29:50.295Z,6.67
2019-04-06T10:32:23.552Z,6.60
2019-04-06T10:35:02.880Z,6.03
2019-04-06T10:37:32.939Z,5.63
2019-04-06T10:40:11.646Z,6.77
2019-04-06T10:42:54.080Z,6.70
2019-04-06T10:45:24.237Z,5.70
2019-04-06T10:47:54.286Z,7.40
2019-04-06T10:50:30.344Z,5.70
2019-04-06T10:53:00.385Z,6.53
2019-04-06T10:55:33.144Z,5.70
2019-04-06T10:58:19.254Z,6.57
2019-04-06T11:00:51.866Z,6.27
2019-04-06T11:03:24.704Z,6.00
2019-04-06T11:06:10.728Z,6.93
2019-04-06T11:08:40.772Z,6.67
2019-04-06T11:11:22.804Z,6.50
2019-04-06T11:14:10.865Z,6.70
2019-04-06T11:16:52.613Z,6.50
2019-04-06T11:19:31.682Z,7.53
2019-04-06T11:22:01.718Z,6.80
2019-04-06T11:24:31.771Z,6.67
2019-04-06T11:27:04.798Z,6.17
2019-04-06T11:29:34.988Z,6.60
2019-04-06T11:32:07.772Z,6.80
2019-04-06T11:34:46.783Z,6.27
2019-04-06T11:37:33.366Z,6.50
2019-04-06T11:40:15.538Z,7.63
2019-04-06T11:42:51.316Z,7.97
2019-04-06T11:45:39.583Z,6.50
2019-04-06T11:48:25.803Z,8.77
2019-04-06T11:51:11.989Z,7.90
2019-04-06T11:53:42.016Z,7.63
2019-04-06T11:56:30.312Z,6.50
2019-04-06T11:59:16.923Z,6.63
2019-04-06T12:01:52.724Z,7.43
2019-04-06T12:04:31.394Z,7.33
2019-04-06T12:07:04.338Z,12.40
2019-04-06T12:09:34.737Z,9.07
2019-04-06T12:12:09.622Z,5.67
2019-04-06T12:14:51.893Z,6.67
2019-04-06T12:17:22.211Z,6.87
2019-04-06T12:19:52.360Z,9.13
2019-04-06T12:22:28.372Z,21.73
2019-04-06T12:25:04.630Z,30.17
2019-04-06T12:27:50.899Z,49.13
2019-04-06T12:30:36.092Z,56.73
2019-04-06T12:33:01.679Z,59.07
2019-04-06T12:35:34.884Z,44.67
2019-04-06T12:38:21.290Z,39.27
2019-04-06T12:41:07.591Z,38.27
2019-04-06T12:43:43.722Z,33.30
2019-04-06T12:46:16.451Z,32.13
2019-04-06T12:48:53.218Z,30.53
2019-04-06T12:51:23.579Z,29.70
2019-04-06T12:54:05.332Z,28.67
2019-04-06T12:56:38.070Z,28.13
2019-04-06T12:59:14.149Z,19.93
2019-04-06T13:01:44.212Z,24.60
2019-04-06T13:04:22.866Z,21.37
2019-04-06T13:06:55.769Z,23.07
2019-04-06T13:09:26.271Z,19.00
2019-04-06T13:12:05.740Z,20.03
2019-04-06T13:14:51.111Z,22.17
2019-04-06T13:17:21.192Z,22.77
2019-04-06T13:19:51.390Z,16.17
2019-04-06T13:22:27.728Z,21.17
2019-04-06T13:24:57.789Z,20.57
2019-04-06T13:27:46.280Z,20.53
2019-04-06T13:30:28.698Z,22.60
2019-04-06T13:32:58.945Z,25.13
2019-04-06T13:35:29.017Z,23.00
2019-04-06T13:38:15.217Z,27.10
2019-04-06T13:41:01.429Z,24.87
2019-04-06T13:43:37.503Z,23.90
2019-04-06T13:46:22.608Z,22.33
2019-04-06T13:48:55.478Z,20.43
2019-04-06T13:51:41.947Z,25.00
2019-04-06T13:54:28.998Z,23.00
2019-04-06T13:57:05.072Z,23.77
2019-04-06T13:59:51.614Z,22.17
2019-04-06T14:02:37.804Z,21.73
2019-04-06T14:05:08.642Z,23.23
2019-04-06T14:07:56.644Z,22.03
2019-04-06T14:10:40.485Z,21.30
2019-04-06T14:13:10.538Z,21.90
2019-04-06T14:15:46.594Z,22.43
2019-04-06T14:18:25.538Z,24.47
2019-04-06T14:21:01.642Z,20.37
2019-04-06T14:23:40.747Z,20.70
2019-04-06T14:26:11.112Z,20.53
2019-04-06T14:28:43.956Z,23.57
2019-04-06T14:31:27.391Z,23.23
2019-04-06T14:33:57.267Z,20.03
2019-04-06T14:36:27.430Z,20.37
2019-04-06T14:39:03.760Z,22.60
2019-04-06T14:41:50.158Z,24.60
2019-04-06T14:44:35.340Z,22.57
2019-04-06T14:47:08.111Z,22.37
2019-04-06T14:49:41.290Z,20.83
2019-04-06T14:52:17.554Z,22.00
2019-04-06T14:54:56.617Z,19.13
2019-04-06T14:57:29.675Z,19.27
2019-04-06T15:00:16.338Z,19.43
2019-04-06T15:02:52.571Z,21.47
2019-04-06T15:05:22.695Z,19.53
2019-04-06T15:07:59.000Z,20.13
2019-04-06T15:10:32.026Z,20.90
2019-04-06T15:13:02.081Z,19.40
2019-04-06T15:15:32.135Z,18.63
2019-04-06T15:18:02.344Z,19.53
2019-04-06T15:20:38.128Z,19.33
2019-04-06T15:23:24.814Z,19.87
2019-04-06T15:26:10.084Z,21.10
2019-04-06T15:28:40.159Z,21.47
2019-04-06T15:31:13.358Z,18.63
2019-04-06T15:33:43.474Z,21.13
2019-04-06T15:36:22.983Z,22.03
2019-04-06T15:39:09.571Z,21.73
2019-04-06T15:41:54.349Z,25.00
2019-04-06T15:44:14.526Z,21.23
2019-04-06T15:47:01.033Z,21.00
2019-04-06T15:49:37.415Z,20.13
2019-04-06T15:52:14.245Z,20.93
2019-04-06T15:54:59.830Z,19.70
2019-04-06T15:57:35.995Z,19.57
2019-04-06T16:00:08.458Z,18.27
2019-04-06T16:02:56.751Z,17.53
2019-04-06T16:05:29.689Z,19.30
2019-04-06T16:07:59.748Z,19.27
2019-04-06T16:10:29.808Z,17.20
2019-04-06T16:13:00.243Z,17.40
2019-04-06T16:15:39.532Z,19.17
2019-04-06T16:18:12.601Z,18.83
2019-04-06T16:20:59.622Z,20.63
2019-04-06T16:23:32.445Z,19.53
2019-04-06T16:26:11.112Z,18.47
2019-04-06T16:28:49.685Z,18.93
2019-04-06T16:31:22.792Z,18.37
2019-04-06T16:34:09.199Z,19.33
2019-04-06T16:36:51.447Z,19.27
2019-04-06T16:39:21.729Z,20.83
2019-04-06T16:41:57.836Z,18.40
2019-04-06T16:44:27.982Z,22.07
2019-04-06T16:47:13.662Z,18.77
2019-04-06T16:49:49.706Z,17.83
2019-04-06T16:52:28.983Z,19.07
2019-04-06T16:55:15.044Z,17.83
2019-04-06T16:57:45.145Z,17.60
2019-04-06T17:00:30.407Z,20.47
2019-04-06T17:03:03.423Z,19.03
2019-04-06T17:05:33.968Z,18.93
2019-04-06T17:08:20.408Z,16.67
2019-04-06T17:10:53.014Z,17.73
2019-04-06T17:13:37.833Z,22.87
2019-04-06T17:16:24.511Z,17.23
2019-04-06T17:19:00.655Z,19.87
2019-04-06T17:21:49.051Z,19.67
2019-04-06T17:24:19.109Z,16.13
2019-04-06T17:26:51.992Z,18.83
2019-04-06T17:29:22.070Z,19.87
2019-04-06T17:31:52.618Z,20.90
2019-04-06T17:34:22.793Z,21.47
2019-04-06T17:36:52.845Z,24.67
2019-04-06T17:39:23.151Z,25.73
2019-04-06T17:41:53.300Z,22.33
2019-04-06T17:44:23.390Z,24.60
2019-04-06T17:47:08.620Z,25.17
2019-04-06T17:49:41.845Z,21.43
2019-04-06T17:52:24.837Z,22.57
2019-04-06T17:54:54.895Z,19.27
2019-04-06T17:57:24.945Z,18.80
2019-04-06T18:00:11.342Z,25.17
2019-04-06T18:02:49.480Z,22.63
2019-04-06T18:05:23.524Z,18.80
2019-04-06T18:07:59.388Z,19.77
2019-04-06T18:10:45.810Z,18.00
2019-04-06T18:13:22.010Z,20.13
2019-04-06T18:15:51.219Z,18.57
2019-04-06T18:18:20.016Z,17.87
2019-04-06T18:20:48.449Z,16.93
2019-04-06T18:23:18.759Z,17.20
2019-04-06T18:25:47.290Z,18.37
2019-04-06T18:28:16.026Z,14.47
2019-04-06T18:30:46.119Z,15.37
2019-04-06T18:33:16.213Z,14.70
2019-04-06T18:35:44.947Z,16.33
2019-04-06T18:38:17.669Z,18.70
2019-04-06T18:40:46.124Z,17.57
2019-04-06T18:43:14.528Z,15.43
2019-04-06T18:45:43.296Z,15.10
2019-04-06T18:48:11.796Z,17.67
2019-04-06T18:50:40.636Z,17.40
2019-04-06T18:53:09.247Z,15.97
2019-04-06T18:55:37.929Z,17.10
2019-04-06T18:58:11.265Z,17.60
2019-04-06T19:00:36.485Z,20.40
2019-04-06T19:03:12.066Z,24.93
2019-04-06T19:05:35.223Z,21.23
2019-04-06T19:08:05.262Z,24.33
2019-04-06T19:10:33.900Z,26.07
2019-04-06T19:13:02.320Z,19.67
2019-04-06T19:15:30.736Z,19.17
2019-04-06T19:17:59.256Z,30.07
2019-04-06T19:20:29.275Z,22.40
2019-04-06T19:22:57.885Z,45.83
2019-04-06T19:25:26.316Z,20.57
2019-04-06T19:27:55.146Z,17.80
2019-04-06T19:30:23.826Z,17.33
2019-04-06T19:32:52.368Z,16.17
2019-04-06T19:35:20.906Z,17.60
2019-04-06T19:37:49.337Z,17.03
2019-04-06T19:40:18.136Z,14.87
2019-04-06T19:42:46.573Z,13.63
2019-04-06T19:45:15.110Z,14.53
2019-04-06T19:47:43.678Z,15.40
2019-04-06T19:50:12.172Z,19.47
2019-04-06T19:52:40.611Z,17.57
2019-04-06T19:55:09.113Z,17.50
2019-04-06T19:57:37.539Z,14.27
2019-04-06T20:00:06.812Z,16.63
2019-04-06T20:02:35.408Z,13.27
2019-04-06T20:05:06.007Z,15.27
2019-04-06T20:07:34.428Z,13.50
2019-04-06T20:10:02.927Z,15.43
2019-04-06T20:12:31.347Z,15.57
2019-04-06T20:14:59.806Z,13.60
2019-04-06T20:17:28.843Z,15.80
2019-04-06T20:19:57.526Z,16.83
2019-04-06T20:22:26.231Z,14.00
2019-04-06T20:24:54.661Z,14.73
2019-04-06T20:27:23.285Z,17.27
2019-04-06T20:29:51.908Z,14.70
2019-04-06T20:32:20.308Z,13.43
2019-04-06T20:34:49.299Z,24.00
2019-04-06T20:37:18.803Z,20.83
2019-04-06T20:39:47.331Z,14.23
2019-04-06T20:42:15.752Z,19.87
2019-04-06T20:44:44.161Z,14.57
2019-04-06T20:47:12.585Z,14.13
2019-04-06T20:49:41.587Z,13.53
2019-04-06T20:52:10.645Z,15.30
2019-04-06T20:54:39.543Z,12.93
2019-04-06T20:57:08.733Z,13.03
2019-04-06T20:59:37.311Z,13.03
2019-04-06T21:02:05.752Z,13.47
2019-04-06T21:04:34.191Z,11.90
2019-04-06T21:07:02.609Z,13.57
2019-04-06T21:09:31.756Z,13.43
2019-04-06T21:12:00.346Z,11.27
2019-04-06T21:14:28.727Z,14.60
2019-04-06T21:16:57.229Z,12.83
2019-04-06T21:19:26.045Z,15.70
2019-04-06T21:21:54.702Z,15.97
2019-04-06T21:24:23.500Z,10.50
2019-04-06T21:26:52.262Z,9.33
2019-04-06T21:29:21.732Z,12.97
2019-04-06T21:31:50.871Z,10.20
2019-04-06T21:34:19.438Z,10.03
2019-04-06T21:36:48.206Z,11.57
2019-04-06T21:39:16.734Z,11.37
2019-04-06T21:41:45.188Z,13.20
2019-04-06T21:44:13.585Z,12.47
2019-04-06T21:46:42.073Z,11.33
2019-04-06T21:49:10.478Z,10.37
2019-04-06T21:51:39.140Z,12.80
2019-04-06T21:54:07.848Z,10.90
2019-04-06T21:56:36.473Z,14.47
2019-04-06T21:59:05.367Z,10.77
2019-04-06T22:01:34.263Z,13.13
2019-04-06T22:04:03.204Z,9.03
2019-04-06T22:06:31.695Z,10.50
2019-04-06T22:09:00.390Z,12.60
2019-04-06T22:11:28.904Z,11.10
2019-04-06T22:13:57.862Z,14.13
2019-04-06T22:16:27.220Z,9.80
2019-04-06T22:18:55.663Z,10.27
2019-04-06T22:21:24.075Z,8.87
2019-04-06T22:23:52.490Z,9.03
2019-04-06T22:26:20.958Z,9.20
2019-04-06T22:28:49.391Z,9.73
2019-04-06T22:31:17.805Z,9.60
2019-04-06T22:33:46.327Z,9.67
2019-04-06T22:36:15.121Z,9.73
2019-04-06T22:38:43.624Z,9.47
2019-04-06T22:41:12.061Z,9.87
2019-04-06T22:43:41.168Z,11.47
2019-04-06T22:46:12.211Z,10.60
2019-04-06T22:48:40.370Z,9.13
2019-04-06T22:51:10.160Z,8.53
2019-04-06T22:53:38.685Z,9.47
2019-04-06T22:56:07.188Z,9.30
2019-04-06T22:58:35.769Z,9.87
2019-04-06T23:01:14.625Z,7.90
2019-04-06T23:03:57.155Z,10.20
2019-04-06T23:06:30.231Z,10.67
2019-04-06T23:08:58.641Z,10.00
2019-04-06T23:11:27.556Z,8.43
2019-04-06T23:13:56.325Z,9.10
2019-04-06T23:16:24.971Z,9.03
2019-04-06T23:18:53.750Z,9.97
2019-04-06T23:21:22.510Z,8.80
2019-04-06T23:23:50.922Z,8.60
2019-04-06T23:26:19.333Z,12.17
2019-04-06T23:28:47.746Z,9.67
2019-04-06T23:31:16.487Z,9.07
2019-04-06T23:33:45.063Z,9.23
2019-04-06T23:36:13.495Z,9.47
2019-04-06T23:38:41.904Z,9.27
2019-04-06T23:41:10.484Z,9.40
2019-04-06T23:43:38.915Z,8.70
2019-04-06T23:46:07.541Z,8.47
2019-04-06T23:48:36.442Z,9.03
2019-04-06T23:51:05.250Z,9.30
2019-04-06T23:53:33.762Z,10.00
2019-04-06T23:56:02.805Z,8.87
2019-04-06T23:58:31.426Z,8.60
